Time;durP1;ratioP1;P1;durP2;ratioP2;P2;SDS_P1;SDS_P2;PMS_P1;PMS_P2;Temp;Humidity;BMP_temperature;BMP_pressure;BME280_temperature;BME280_humidity;BME280_pressure;Samples;Min_cycle;Max_cycle;Signal;HPM_P1;HPM_P2
2022/07/30 00:02:02;;;;;;;1.00;1.00;;;;;;;30.65;37.17;99319.34;1857441;75;28074;-43
2022/07/30 00:04:50;;;;;;;1.13;1.13;;;;;;;30.67;37.14;99316.55;1856232;76;28073;-42
2022/07/30 00:07:39;;;;;;;1.30;1.20;;;;;;;30.65;37.13;99317.41;1870112;74;28284;-41
2022/07/30 00:10:27;;;;;;;1.20;1.00;;;;;;;30.67;37.12;99314.33;1885008;74;28148;-43
2022/07/30 00:13:16;;;;;;;1.47;0.90;;;;;;;30.65;37.09;99307.70;1845604;76;28227;-43
2022/07/30 00:16:04;;;;;;;1.00;1.00;;;;;;;30.65;37.12;99303.54;1871336;75;28204;-42
2022/07/30 00:18:53;;;;;;;0.93;0.93;;;;;;;30.65;37.08;99304.09;1873504;75;28196;-42
2022/07/30 00:21:41;;;;;;;1.03;1.03;;;;;;;30.68;37.11;99302.13;1850035;76;28234;-42
2022/07/30 00:24:30;;;;;;;1.45;1.00;;;;;;;30.69;37.05;99306.56;1863788;76;28169;-42
2022/07/30 00:27:18;;;;;;;1.10;1.00;;;;;;;30.70;37.05;99302.66;1868242;76;28146;-43
2022/07/30 00:30:08;;;;;;;1.10;1.00;;;;;;;30.68;37.03;99307.13;1863952;75;28058;-42
2022/07/30 00:32:58;;;;;;;0.80;0.80;;;;;;;30.67;37.08;99307.39;1861990;76;28129;-44
2022/07/30 00:35:47;;;;;;;1.10;1.00;;;;;;;30.68;37.06;99306.29;1872571;75;28117;-42
2022/07/30 00:38:36;;;;;;;1.00;1.00;;;;;;;30.66;37.05;99305.20;1865668;75;28130;-41
2022/07/30 00:41:25;;;;;;;0.90;0.90;;;;;;;30.66;37.05;99305.20;1868070;74;28090;-42
2022/07/30 00:44:14;;;;;;;1.10;1.10;;;;;;;30.67;37.03;99304.06;1854381;76;28264;-42
2022/07/30 00:47:02;;;;;;;1.00;1.00;;;;;;;30.69;37.02;99302.41;1868214;76;28164;-41
2022/07/30 00:49:51;;;;;;;1.00;1.00;;;;;;;30.69;36.97;99305.18;1870384;75;28113;-42
2022/07/30 00:52:41;;;;;;;0.80;0.80;;;;;;;30.68;36.94;99302.96;1859922;75;28219;-43
2022/07/30 00:55:29;;;;;;;0.90;0.90;;;;;;;30.69;36.95;99296.28;1872626;75;28053;-43
2022/07/30 00:58:18;;;;;;;0.85;0.85;;;;;;;30.69;36.95;99295.48;1870148;75;28105;-42
2022/07/30 01:01:06;;;;;;;0.90;0.90;;;;;;;30.68;36.92;99291.87;1876569;75;28062;-44
2022/07/30 01:03:55;;;;;;;0.85;0.85;;;;;;;30.70;36.91;99295.17;1869171;75;28259;-42
2022/07/30 01:06:43;;;;;;;1.80;1.00;;;;;;;30.71;36.91;99291.84;1859526;74;28052;-42
2022/07/30 01:09:31;;;;;;;0.97;0.97;;;;;;;30.72;36.88;99290.16;1866915;74;28108;-42
2022/07/30 01:12:22;;;;;;;1.02;0.93;;;;;;;30.69;36.90;99289.34;1871249;75;28050;-43
2022/07/30 01:15:12;;;;;;;1.00;1.00;;;;;;;30.70;36.90;99284.63;1870074;75;28186;-42
2022/07/30 01:18:04;;;;;;;1.15;0.95;;;;;;;30.69;36.92;99289.93;1868294;75;28173;-42
2022/07/30 01:20:58;;;;;;;1.60;1.10;;;;;;;30.70;36.94;99297.11;1864943;75;28096;-42
2022/07/30 01:23:57;;;;;;;0.90;0.90;;;;;;;30.73;36.91;99295.15;1876269;75;28127;-43
2022/07/30 01:26:49;;;;;;;0.85;0.85;;;;;;;30.70;36.95;99295.17;1865540;75;28030;-43
2022/07/30 01:29:40;;;;;;;1.00;1.00;;;;;;;30.71;36.93;99300.16;1863188;76;28157;-44
2022/07/30 01:32:31;;;;;;;0.98;0.98;;;;;;;30.70;36.93;99297.11;1869489;75;28205;-44
2022/07/30 01:35:22;;;;;;;1.10;1.00;;;;;;;30.70;36.96;99297.11;1872104;75;28060;-42
2022/07/30 01:38:15;;;;;;;1.50;0.80;;;;;;;30.71;36.93;99302.35;1856684;76;28169;-42
2022/07/30 01:41:13;;;;;;;0.90;0.90;;;;;;;30.70;36.94;99298.50;1863657;75;28087;-42
2022/07/30 01:44:03;;;;;;;0.82;0.82;;;;;;;30.70;36.96;99292.40;1849297;76;28283;-42
2022/07/30 01:46:54;;;;;;;0.98;0.98;;;;;;;30.70;36.91;99290.17;1868545;76;28180;-43
2022/07/30 01:49:48;;;;;;;1.00;1.00;;;;;;;30.71;36.93;99290.45;1872857;75;28114;-42
2022/07/30 01:52:39;;;;;;;1.00;1.00;;;;;;;30.70;36.88;99291.02;1868395;76;28250;-42
2022/07/30 01:55:33;;;;;;;1.00;1.00;;;;;;;30.72;36.93;99292.09;1868086;76;28152;-44
2022/07/30 01:58:25;;;;;;;1.35;1.02;;;;;;;30.70;36.94;99281.30;1859882;76;28121;-42
2022/07/30 02:01:15;;;;;;;1.05;1.05;;;;;;;30.74;36.91;99277.37;1823063;76;28358;-42
2022/07/30 02:04:04;;;;;;;0.98;0.88;;;;;;;30.72;36.94;99268.52;1849187;76;28164;-46
2022/07/30 02:07:05;;;;;;;1.40;0.83;;;;;;;30.72;36.96;99266.58;1861856;76;28197;-43
2022/07/30 02:09:59;;;;;;;0.80;0.80;;;;;;;30.73;36.89;99261.87;1852293;74;28160;-43
2022/07/30 02:12:54;;;;;;;1.00;1.00;;;;;;;30.77;36.84;99267.09;1875789;75;32061;-42
2022/07/30 02:15:49;;;;;;;0.90;0.90;;;;;;;30.76;36.84;99271.80;1839275;76;28466;-42
2022/07/30 02:18:55;;;;;;;0.93;0.93;;;;;;;30.74;36.83;99271.27;1870773;75;28166;-42
2022/07/30 02:21:47;;;;;;;1.10;1.00;;;;;;;30.74;36.79;99273.20;1856476;77;28077;-42
2022/07/30 02:24:38;;;;;;;0.90;0.90;;;;;;;30.70;36.89;99270.77;1849140;76;28185;-42
2022/07/30 02:27:29;;;;;;;0.80;0.80;;;;;;;30.72;36.85;99267.13;1839922;77;28195;-42
2022/07/30 02:30:19;;;;;;;0.75;0.75;;;;;;;30.70;36.89;99271.60;1854959;75;28151;-43
2022/07/30 02:33:11;;;;;;;0.80;0.80;;;;;;;30.72;36.91;99275.45;1856540;75;28072;-42
2022/07/30 02:36:01;;;;;;;0.80;0.80;;;;;;;30.73;36.82;99276.56;1853781;76;28117;-42
2022/07/30 02:38:51;;;;;;;0.80;0.80;;;;;;;30.76;36.74;99282.06;1873625;74;28103;-42
2022/07/30 02:41:41;;;;;;;0.90;0.90;;;;;;;30.75;36.74;99285.42;1835849;76;28199;-42
2022/07/30 02:44:32;;;;;;;0.90;0.90;;;;;;;30.77;36.66;99283.72;1875348;75;28223;-43
2022/07/30 02:47:22;;;;;;;1.30;0.85;;;;;;;30.77;36.69;99286.50;1861873;76;28058;-42
2022/07/30 02:50:13;;;;;;;1.00;1.00;;;;;;;30.76;36.68;99280.67;1857280;76;28175;-42
2022/07/30 02:53:04;;;;;;;0.95;0.90;;;;;;;30.76;36.62;99283.45;1876433;75;28129;-42
2022/07/30 02:55:56;;;;;;;1.40;0.90;;;;;;;30.76;36.62;99279.28;1862357;75;28023;-42
2022/07/30 02:58:47;;;;;;;0.80;0.80;;;;;;;30.74;36.58;99279.59;1862235;76;28083;-40
2022/07/30 03:01:36;;;;;;;0.80;0.80;;;;;;;30.74;36.60;99278.20;1856606;77;28102;-44
2022/07/30 03:04:27;;;;;;;0.90;0.90;;;;;;;30.78;36.53;99284.56;1851718;76;28144;-43
2022/07/30 03:07:16;;;;;;;1.00;1.00;;;;;;;30.77;36.45;99280.95;1849112;77;28119;-42
2022/07/30 03:10:06;;;;;;;0.90;0.90;;;;;;;30.77;36.49;99274.02;1832990;77;28219;-42
2022/07/30 03:12:56;;;;;;;0.90;0.90;;;;;;;30.78;36.46;99284.56;1878308;74;28059;-42
2022/07/30 03:15:52;;;;;;;1.12;1.02;;;;;;;30.78;36.46;99283.17;1853568;75;28088;-43
2022/07/30 03:18:39;;;;;;;0.90;0.90;;;;;;;30.79;36.49;99288.41;1852677;76;28212;-41
2022/07/30 03:21:30;;;;;;;1.00;1.00;;;;;;;30.79;36.44;99291.19;1879190;75;28155;-42
2022/07/30 03:24:23;;;;;;;0.90;0.90;;;;;;;30.75;36.50;99284.03;1885760;75;28329;-41
2022/07/30 03:27:12;;;;;;;0.80;0.80;;;;;;;30.76;36.50;99286.22;1878117;75;28031;-42
2022/07/30 03:30:02;;;;;;;1.00;0.90;;;;;;;30.76;36.50;99290.38;1875287;75;28261;-42
2022/07/30 03:32:53;;;;;;;0.90;0.90;;;;;;;30.77;36.51;99290.66;1868600;75;28204;-43
2022/07/30 03:35:43;;;;;;;0.90;0.90;;;;;;;30.75;36.54;99297.06;1879442;75;28109;-43
2022/07/30 03:38:32;;;;;;;1.50;1.00;;;;;;;30.73;36.62;99293.77;1879953;75;28513;-42
2022/07/30 03:41:23;;;;;;;0.95;0.95;;;;;;;30.73;36.63;99302.08;1874297;76;28086;-41
2022/07/30 03:44:12;;;;;;;0.90;0.90;;;;;;;30.75;36.58;99299.84;1860975;76;28125;-42
2022/07/30 03:47:04;;;;;;;0.97;0.97;;;;;;;30.75;36.61;99303.44;1880493;75;28227;-42
2022/07/30 03:49:54;;;;;;;0.80;0.80;;;;;;;30.77;36.54;99303.14;1870843;76;28150;-43
2022/07/30 03:52:43;;;;;;;1.10;0.90;;;;;;;30.78;36.53;99303.97;1877769;76;28121;-41
2022/07/30 03:55:35;;;;;;;0.80;0.80;;;;;;;30.78;36.42;99304.80;1876885;76;28074;-41
2022/07/30 03:58:25;;;;;;;0.90;0.90;;;;;;;30.77;36.47;99304.53;1851105;75;28069;-42
2022/07/30 04:01:14;;;;;;;0.90;0.90;;;;;;;30.78;36.44;99308.37;1877099;75;28178;-42
2022/07/30 04:04:08;;;;;;;0.88;0.88;;;;;;;30.80;36.43;99312.27;1861574;76;28206;-43
2022/07/30 04:06:58;;;;;;;2.25;0.90;;;;;;;30.78;36.44;99312.54;1872280;75;28552;-43
2022/07/30 04:09:47;;;;;;;1.10;1.10;;;;;;;30.77;36.41;99314.23;1876243;76;28100;-41
2022/07/30 04:12:43;;;;;;;0.80;0.80;;;;;;;30.77;36.49;99318.39;1856928;75;28164;-42
2022/07/30 04:15:34;;;;;;;1.27;0.93;;;;;;;30.77;36.51;99321.16;1890726;74;28221;-42
2022/07/30 04:18:26;;;;;;;0.80;0.80;;;;;;;30.79;36.42;99324.47;1864881;74;28465;-42
2022/07/30 04:21:17;;;;;;;0.80;0.80;;;;;;;30.80;36.45;99326.69;1877477;74;28145;-42
2022/07/30 04:24:09;;;;;;;0.88;0.88;;;;;;;30.80;36.44;99330.84;1883323;75;28173;-43
2022/07/30 04:27:00;;;;;;;0.90;0.90;;;;;;;30.78;36.48;99333.93;1841465;77;28230;-42
2022/07/30 04:29:49;;;;;;;1.30;1.10;;;;;;;30.77;36.49;99335.03;1881120;75;28025;-43
2022/07/30 04:32:38;;;;;;;1.10;1.10;;;;;;;30.78;36.46;99344.44;1877898;75;28598;-42
2022/07/30 04:35:35;;;;;;;1.35;0.90;;;;;;;30.78;36.44;99344.44;1882004;75;28176;-43
2022/07/30 04:38:31;;;;;;;1.00;1.00;;;;;;;30.80;36.44;99344.16;1868844;75;28018;-42
2022/07/30 04:41:19;;;;;;;1.10;1.00;;;;;;;30.77;36.42;99350.29;1879354;75;28133;-45
2022/07/30 04:44:09;;;;;;;0.83;0.83;;;;;;;30.76;36.45;99350.84;1861563;75;28236;-42
2022/07/30 04:47:00;;;;;;;0.90;0.90;;;;;;;30.78;36.40;99353.34;1856842;76;28115;-42
2022/07/30 04:49:49;;;;;;;1.15;0.93;;;;;;;30.81;36.38;99356.09;1878040;74;28263;-43
2022/07/30 04:52:39;;;;;;;0.95;0.95;;;;;;;30.81;36.35;99365.80;1883301;74;28155;-43
2022/07/30 04:55:29;;;;;;;0.85;0.85;;;;;;;30.78;36.38;99369.98;1858253;76;28151;-42
2022/07/30 04:58:20;;;;;;;0.80;0.80;;;;;;;30.78;36.35;99370.78;1884233;75;28270;-43
2022/07/30 05:01:10;;;;;;;1.10;1.00;;;;;;;30.78;36.34;99376.33;1883391;75;28245;-42
2022/07/30 05:04:01;;;;;;;1.23;1.20;;;;;;;30.78;36.39;99374.70;1876315;76;28514;-42
2022/07/30 05:06:51;;;;;;;0.98;0.90;;;;;;;30.76;36.32;99379.96;1879779;75;28101;-42
2022/07/30 05:09:41;;;;;;;2.00;0.90;;;;;;;30.77;36.36;99383.57;1871066;76;28160;-43
2022/07/30 05:12:40;;;;;;;1.00;1.00;;;;;;;30.78;36.34;99382.47;1869610;76;28085;-43
2022/07/30 05:15:26;;;;;;;0.95;0.90;;;;;;;30.76;36.31;99387.45;1864063;76;28136;-46
2022/07/30 05:18:14;;;;;;;1.05;1.05;;;;;;;30.75;36.38;99388.03;1871715;76;28095;-44
2022/07/30 05:21:05;;;;;;;1.22;1.02;;;;;;;30.67;36.28;99390.03;1881792;75;28614;-44
2022/07/30 05:24:07;;;;;;;1.20;1.10;;;;;;;30.49;36.47;99386.59;1871338;74;28203;-46
2022/07/30 05:26:57;;;;;;;1.07;1.07;;;;;;;30.31;36.71;99395.57;1874830;74;28200;-47
2022/07/30 05:29:47;;;;;;;1.15;1.10;;;;;;;30.21;36.90;99398.95;1877567;74;28086;-43
2022/07/30 05:32:37;;;;;;;1.12;1.12;;;;;;;30.07;37.25;99394.06;1863169;76;28200;-44
2022/07/30 05:35:25;;;;;;;1.10;1.00;;;;;;;29.98;37.44;99393.56;1873499;76;28243;-43
2022/07/30 05:38:14;;;;;;;1.30;1.20;;;;;;;29.88;37.58;99395.83;1858721;75;28113;-45
2022/07/30 05:41:10;;;;;;;1.20;1.10;;;;;;;29.82;37.78;99396.98;1877476;76;28228;-44
2022/07/30 05:44:01;;;;;;;1.60;1.15;;;;;;;29.75;37.90;99398.36;1867299;76;28137;-44
2022/07/30 05:46:50;;;;;;;1.55;1.20;;;;;;;29.65;37.97;99402.00;1859664;76;28252;-43
2022/07/30 05:49:39;;;;;;;1.40;1.20;;;;;;;29.59;38.05;99403.16;1876951;75;28153;-44
2022/07/30 05:52:29;;;;;;;1.12;1.12;;;;;;;29.54;38.15;99400.40;1880284;74;28160;-45
2022/07/30 05:55:19;;;;;;;1.10;1.10;;;;;;;29.49;38.28;99399.03;1866802;76;28240;-44
2022/07/30 05:58:18;;;;;;;1.20;1.20;;;;;;;29.47;38.31;99394.34;1807981;75;28189;-45
2022/07/30 06:01:07;;;;;;;1.40;1.30;;;;;;;29.43;38.53;99394.61;1786947;77;28502;-45
2022/07/30 06:03:55;;;;;;;1.30;1.30;;;;;;;29.35;38.71;99402.12;1802824;78;28324;-46
2022/07/30 06:06:48;;;;;;;1.70;1.30;;;;;;;29.34;38.65;99404.05;1810382;77;28360;-44
2022/07/30 06:12:41;;;;;;;1.15;1.12;;;;;;;29.28;38.86;99404.36;1835829;77;28501;-44
2022/07/30 06:15:29;;;;;;;1.10;1.10;;;;;;;29.23;38.99;99407.97;1844324;77;28204;-43
2022/07/30 06:18:18;;;;;;;1.20;1.20;;;;;;;29.23;38.98;99404.36;1810363;77;28320;-43
2022/07/30 06:21:08;;;;;;;1.10;1.10;;;;;;;29.21;39.03;99401.05;1811077;78;28193;-43
2022/07/30 06:24:21;;;;;;;1.10;1.10;;;;;;;29.17;38.58;99399.94;1867975;75;28247;-43
2022/07/30 06:27:11;;;;;;;1.32;1.22;;;;;;;29.17;38.58;99399.94;1871475;75;28070;-44
2022/07/30 06:30:01;;;;;;;1.30;1.20;;;;;;;29.10;39.03;99400.20;1868291;76;28565;-45
2022/07/30 06:32:50;;;;;;;2.12;1.30;;;;;;;29.10;38.99;99398.81;1847655;76;28169;-45
2022/07/30 06:35:39;;;;;;;1.80;1.10;;;;;;;29.03;39.16;99403.00;1865427;76;28221;-46
2022/07/30 06:38:28;;;;;;;1.30;1.30;;;;;;;28.96;39.33;99399.70;1871886;75;28137;-44
2022/07/30 06:41:25;;;;;;;1.22;1.20;;;;;;;28.93;39.48;99398.31;1859469;75;28155;-44
2022/07/30 06:44:15;;;;;;;1.10;1.10;;;;;;;28.92;39.52;99398.57;1854431;76;28160;-46
2022/07/30 06:47:25;;;;;;;1.10;1.10;;;;;;;28.90;39.58;99397.48;1762491;79;28382;-42
2022/07/30 06:50:12;;;;;;;1.30;1.20;;;;;;;28.88;39.62;99412.69;1866055;75;28155;-44
2022/07/30 06:53:01;;;;;;;1.15;1.15;;;;;;;28.81;39.65;99413.52;1873590;74;28240;-44
2022/07/30 06:55:51;;;;;;;1.17;1.17;;;;;;;28.73;39.84;99408.83;1869536;74;28183;-44
2022/07/30 06:58:40;;;;;;;1.12;1.12;;;;;;;28.61;39.96;99412.41;1857480;76;28223;-43
2022/07/30 07:01:40;;;;;;;1.10;1.10;;;;;;;28.45;40.25;99412.68;1844393;76;28098;-43
2022/07/30 07:04:30;;;;;;;1.60;1.50;;;;;;;28.34;40.46;99402.16;1864412;75;28082;-44
2022/07/30 07:07:20;;;;;;;1.10;1.10;;;;;;;28.49;40.34;99418.77;1855738;76;28186;-45
2022/07/30 07:10:09;;;;;;;3.40;1.40;;;;;;;28.49;40.34;99410.47;1853042;74;28173;-45
2022/07/30 07:13:08;;;;;;;1.10;1.10;;;;;;;28.59;40.18;99411.87;1849459;76;28191;-43
2022/07/30 07:15:57;;;;;;;1.15;1.15;;;;;;;28.57;40.22;99407.14;1864777;76;28169;-45
2022/07/30 07:18:47;;;;;;;1.30;1.30;;;;;;;28.53;40.19;99408.81;1857807;76;28163;-45
2022/07/30 07:21:36;;;;;;;1.20;1.20;;;;;;;28.60;40.11;99415.47;1859889;74;28090;-44
2022/07/30 07:24:25;;;;;;;1.25;1.15;;;;;;;28.52;40.25;99412.66;1867249;74;28153;-45
2022/07/30 07:27:18;;;;;;;1.95;1.17;;;;;;;28.45;40.25;99411.30;1859205;76;28150;-45
2022/07/30 07:30:09;;;;;;;1.20;1.20;;;;;;;28.41;40.47;99408.23;1872572;75;33061;-44
2022/07/30 07:32:58;;;;;;;1.20;1.20;;;;;;;28.45;40.48;99410.72;1847249;77;28130;-44
2022/07/30 07:35:47;;;;;;;1.50;1.40;;;;;;;28.56;40.28;99408.81;1857341;76;28208;-44
2022/07/30 07:38:37;;;;;;;1.50;1.40;;;;;;;28.62;40.17;99403.58;1860564;76;28363;-44
2022/07/30 07:41:26;;;;;;;1.40;1.30;;;;;;;28.62;40.21;99408.56;1871097;75;28220;-46
2022/07/30 07:44:14;;;;;;;1.27;1.27;;;;;;;28.66;40.06;99404.13;1865812;76;28164;-44
2022/07/30 07:47:04;;;;;;;1.87;1.30;;;;;;;28.69;40.03;99403.58;1861127;76;28147;-48
2022/07/30 07:49:57;;;;;;;1.42;1.42;;;;;;;28.73;39.97;99397.77;1859684;76;28229;-44
2022/07/30 07:52:45;;;;;;;1.20;1.20;;;;;;;28.81;39.89;99401.08;1877369;75;28192;-46
2022/07/30 07:55:35;;;;;;;1.35;1.35;;;;;;;28.78;39.98;99405.23;1851491;76;28663;-44
2022/07/30 07:58:25;;;;;;;1.40;1.40;;;;;;;28.55;40.22;99398.30;1867084;76;28195;-42
2022/07/30 08:01:14;;;;;;;1.20;1.20;;;;;;;28.47;40.58;99391.92;1868171;76;28141;-44
2022/07/30 08:04:20;;;;;;;1.47;1.37;;;;;;;28.47;40.60;99389.16;1845123;77;28197;-45
2022/07/30 08:07:13;;;;;;;1.22;1.20;;;;;;;28.50;40.61;99388.63;1856459;76;28140;-45
2022/07/30 08:10:12;;;;;;;1.10;1.10;;;;;;;28.57;40.38;99387.80;1840476;76;28183;-43
2022/07/30 08:13:05;;;;;;;1.35;1.30;;;;;;;28.60;40.18;99383.69;1847139;77;28164;-43
2022/07/30 08:15:59;;;;;;;2.05;1.30;;;;;;;28.68;39.85;99388.09;1840477;76;28166;-48
2022/07/30 08:19:05;;;;;;;1.12;1.12;;;;;;;28.71;39.79;99388.09;1857839;76;28144;-44
2022/07/30 08:21:58;;;;;;;1.22;1.20;;;;;;;28.70;39.35;99385.07;1866084;75;28231;-45
2022/07/30 08:24:47;;;;;;;1.45;1.37;;;;;;;28.78;38.99;99381.73;1874473;74;28290;-44
2022/07/30 08:27:36;;;;;;;1.30;1.30;;;;;;;28.89;38.97;99386.70;1869110;75;28215;-44
2022/07/30 08:30:24;;;;;;;1.30;1.25;;;;;;;28.98;38.87;99378.95;1854592;75;30071;-48
2022/07/30 08:33:13;;;;;;;2.98;1.40;;;;;;;29.07;38.64;99377.81;1858966;76;28164;-45
2022/07/30 08:36:02;;;;;;;1.95;1.30;;;;;;;29.16;38.49;99381.66;1864774;75;28167;-48
2022/07/30 08:38:50;;;;;;;1.50;1.40;;;;;;;29.23;38.33;99383.61;1868210;76;28167;-48
2022/07/30 08:41:41;;;;;;;1.20;1.20;;;;;;;29.29;38.18;99386.08;1866839;75;28043;-44
2022/07/30 08:44:30;;;;;;;1.20;1.20;;;;;;;29.38;38.05;99376.08;1855767;75;28209;-45
2022/07/30 08:47:22;;;;;;;1.40;1.27;;;;;;;29.47;37.82;99372.74;1854137;75;28234;-45
2022/07/30 08:50:29;;;;;;;1.17;1.10;;;;;;;29.46;37.80;99373.29;1852149;76;28164;-45
2022/07/30 08:53:36;;;;;;;2.40;1.20;;;;;;;29.45;37.85;99370.81;1856094;74;28162;-46
2022/07/30 08:56:25;;;;;;;1.05;1.05;;;;;;;29.47;37.75;99371.36;1878165;74;28142;-44
2022/07/30 08:59:14;;;;;;;1.17;1.17;;;;;;;29.51;37.71;99367.73;1871148;75;28088;-45
2022/07/30 09:02:02;;;;;;;1.20;1.20;;;;;;;29.56;37.62;99368.27;1867107;76;30054;-43
2022/07/30 09:04:52;;;;;;;1.65;1.30;;;;;;;29.61;37.61;99363.55;1865074;75;28381;-44
2022/07/30 09:07:42;;;;;;;1.05;1.05;;;;;;;29.64;37.48;99365.73;1823545;77;28144;-47
2022/07/30 09:10:32;;;;;;;2.75;1.30;;;;;;;29.68;37.50;99359.91;1869549;75;28181;-44
2022/07/30 09:13:29;;;;;;;1.20;1.20;;;;;;;29.72;37.50;99358.23;1853867;76;28142;-43
2022/07/30 09:16:21;;;;;;;1.12;1.12;;;;;;;29.75;37.51;99356.83;1867796;75;28181;-44
2022/07/30 09:19:23;;;;;;;1.13;1.13;;;;;;;29.75;37.49;99353.52;1861872;76;28203;-45
2022/07/30 09:22:13;;;;;;;1.30;1.20;;;;;;;29.76;37.47;99351.03;1868531;76;28152;-46
2022/07/30 09:25:34;;;;;;;1.20;1.20;;;;;;;29.78;37.46;99354.92;1868892;75;28219;-44
2022/07/30 09:28:41;;;;;;;1.20;1.10;;;;;;;29.83;37.27;99353.48;1874758;75;28265;-44
2022/07/30 09:31:40;;;;;;;1.60;1.10;;;;;;;29.85;37.28;99355.43;1877330;75;33028;-44
2022/07/30 09:34:46;;;;;;;1.10;1.10;;;;;;;29.88;37.23;99358.44;1867181;76;28256;-44
2022/07/30 09:38:02;;;;;;;3.10;1.10;;;;;;;29.88;37.24;99347.36;1874853;75;28159;-44
2022/07/30 09:40:59;;;;;;;1.10;1.10;;;;;;;29.92;37.30;99347.63;1843883;75;28148;-45
2022/07/30 09:44:00;;;;;;;1.05;1.05;;;;;;;29.94;37.28;99345.41;1860105;75;28207;-45
2022/07/30 09:46:54;;;;;;;1.25;1.25;;;;;;;29.90;37.28;99342.91;1876892;74;28086;-44
2022/07/30 09:49:44;;;;;;;1.20;1.10;;;;;;;29.89;37.29;99346.81;1877294;76;36243;-44
2022/07/30 09:52:32;;;;;;;1.10;1.10;;;;;;;29.94;37.30;99345.41;1877584;76;28191;-45
2022/07/30 09:55:36;;;;;;;1.10;1.10;;;;;;;30.01;37.31;99333.45;1875076;75;28186;-44
2022/07/30 09:58:41;;;;;;;1.30;1.20;;;;;;;30.04;37.26;99323.98;1866905;76;28262;-47
2022/07/30 10:01:33;;;;;;;1.80;1.20;;;;;;;30.09;37.14;99330.05;1849903;76;28189;-46
2022/07/30 10:04:28;;;;;;;0.90;0.90;;;;;;;30.09;37.13;99318.97;1877727;76;28182;-45
2022/07/30 10:07:21;;;;;;;1.20;1.20;;;;;;;30.09;37.12;99318.41;1876790;76;28679;-44
2022/07/30 10:10:10;;;;;;;1.22;1.10;;;;;;;30.15;37.09;99310.06;1877177;76;28101;-43
2022/07/30 10:13:02;;;;;;;1.00;1.00;;;;;;;30.17;37.07;99317.53;1877986;76;32045;-42
2022/07/30 10:15:51;;;;;;;1.92;1.10;;;;;;;30.16;36.97;99298.68;1877844;76;28151;-43
2022/07/30 10:18:42;;;;;;;1.32;1.22;;;;;;;30.19;36.99;99300.05;1878061;76;28119;-45
2022/07/30 10:21:38;;;;;;;1.15;1.15;;;;;;;30.23;37.05;99298.34;1844967;75;28142;-44
2022/07/30 10:24:41;;;;;;;1.00;1.00;;;;;;;30.20;37.07;99283.13;1792583;77;28456;-43
2022/07/30 10:27:49;;;;;;;0.93;0.93;;;;;;;30.21;37.11;99288.95;1857470;76;28161;-44
2022/07/30 10:30:50;;;;;;;1.10;1.10;;;;;;;30.20;37.09;99278.16;1877789;76;28192;-44
2022/07/30 10:33:39;;;;;;;1.05;1.05;;;;;;;30.19;37.18;99279.27;1877757;76;28134;-45
2022/07/30 10:36:29;;;;;;;1.50;1.20;;;;;;;30.24;37.16;99278.68;1877859;76;28105;-43
2022/07/30 10:39:23;;;;;;;1.10;1.10;;;;;;;30.25;37.15;99261.47;1858971;76;28215;-43
2022/07/30 10:42:29;;;;;;;1.00;1.00;;;;;;;30.29;37.09;99267.55;1846554;76;28381;-43
2022/07/30 10:45:21;;;;;;;1.00;1.00;;;;;;;30.28;37.05;99264.50;1866980;76;28297;-44
2022/07/30 10:48:11;;;;;;;1.27;1.17;;;;;;;30.28;37.14;99263.67;1868109;76;28103;-42
2022/07/30 10:51:00;;;;;;;1.00;1.00;;;;;;;30.29;37.14;99269.49;1883440;74;28234;-44
2022/07/30 10:53:49;;;;;;;1.00;1.00;;;;;;;30.30;36.98;99265.03;1887057;74;28039;-44
2022/07/30 10:56:37;;;;;;;1.02;1.02;;;;;;;30.31;37.05;99265.87;1877292;76;28137;-43
2022/07/30 10:59:26;;;;;;;0.98;0.98;;;;;;;30.32;37.00;99259.19;1878034;76;38437;-43
2022/07/30 11:02:15;;;;;;;1.40;1.20;;;;;;;30.34;37.00;99252.27;1877954;76;28132;-44
2022/07/30 11:05:22;;;;;;;1.00;1.00;;;;;;;30.30;36.89;99258.10;1852095;76;28177;-44
2022/07/30 11:08:36;;;;;;;0.93;0.93;;;;;;;30.34;36.85;99242.57;1869832;76;28217;-44
2022/07/30 11:11:29;;;;;;;1.02;1.02;;;;;;;30.25;36.91;99234.59;1852474;76;28083;-43
2022/07/30 11:14:18;;;;;;;1.00;1.00;;;;;;;30.26;36.99;99244.57;1855487;76;28214;-44
2022/07/30 11:17:07;;;;;;;0.90;0.90;;;;;;;30.23;36.99;99235.45;1878136;76;28273;-45
2022/07/30 11:20:07;;;;;;;1.00;1.00;;;;;;;30.22;36.94;99239.91;1877792;76;28043;-43
2022/07/30 11:23:11;;;;;;;1.00;1.00;;;;;;;30.22;36.93;99231.04;1857366;76;28110;-42
2022/07/30 11:25:59;;;;;;;1.00;1.00;;;;;;;30.26;36.87;99233.48;1877670;76;28291;-44
2022/07/30 11:28:48;;;;;;;1.00;1.00;;;;;;;30.27;36.88;99234.32;1868936;76;28154;-43
2022/07/30 11:31:38;;;;;;;0.90;0.90;;;;;;;30.25;36.88;99237.91;1868758;76;28172;-42
2022/07/30 11:34:28;;;;;;;1.62;0.98;;;;;;;30.30;36.79;99230.94;1850219;76;28182;-43
2022/07/30 11:37:17;;;;;;;1.10;1.10;;;;;;;30.33;36.67;99238.72;1868604;76;28251;-44
2022/07/30 11:40:07;;;;;;;0.93;0.93;;;;;;;30.33;36.66;99236.78;1868715;76;28207;-44
2022/07/30 11:43:19;;;;;;;1.20;1.00;;;;;;;30.38;36.60;99220.66;1853403;75;28216;-43
2022/07/30 11:46:22;;;;;;;1.55;1.05;;;;;;;30.37;36.57;99225.36;1859523;76;28415;-43
2022/07/30 11:49:10;;;;;;;2.17;1.37;;;;;;;30.32;36.59;99219.84;1859272;76;28276;-44
2022/07/30 11:51:59;;;;;;;1.60;1.25;;;;;;;30.33;36.67;99225.69;1868147;75;28163;-41
2022/07/30 11:54:54;;;;;;;2.50;1.37;;;;;;;30.38;36.63;99209.56;1865287;75;28249;-41
2022/07/30 11:57:43;;;;;;;3.30;1.40;;;;;;;30.40;36.58;99204.00;1854757;76;28159;-44
2022/07/30 12:00:40;;;;;;;1.72;1.32;;;;;;;30.46;36.40;99217.23;1853665;75;28100;-43
2022/07/30 12:03:32;;;;;;;2.00;1.33;;;;;;;30.48;36.42;99215.81;1873200;75;28119;-43
2022/07/30 12:06:21;;;;;;;2.67;1.45;;;;;;;30.50;36.36;99214.16;1868656;75;33101;-43
2022/07/30 12:09:10;;;;;;;1.40;1.30;;;;;;;30.54;36.35;99202.19;1866127;75;28126;-42
2022/07/30 12:11:59;;;;;;;1.20;1.20;;;;;;;30.58;36.29;99197.69;1854264;76;28255;-44
2022/07/30 12:14:47;;;;;;;1.10;1.10;;;;;;;30.58;36.31;99196.86;1855314;76;28185;-43
2022/07/30 12:17:46;;;;;;;1.30;1.20;;;;;;;30.61;36.36;99192.13;1865966;76;28155;-43
2022/07/30 12:20:35;;;;;;;0.90;0.90;;;;;;;30.62;36.21;99196.56;1869378;75;28108;-45
2022/07/30 12:23:23;;;;;;;1.07;1.07;;;;;;;30.62;36.33;99200.13;1862254;76;28207;-43
2022/07/30 12:26:21;;;;;;;1.70;0.90;;;;;;;30.62;35.73;99207.06;1856892;76;28086;-45
2022/07/30 12:29:12;;;;;;;1.10;1.10;;;;;;;30.65;34.57;99194.01;1856031;74;28158;-46
2022/07/30 12:32:01;;;;;;;2.12;1.20;;;;;;;30.60;34.35;99189.07;1855870;76;28089;-45
2022/07/30 12:34:57;;;;;;;1.32;0.90;;;;;;;30.61;33.95;99185.19;1849811;76;28683;-43
2022/07/30 12:37:48;;;;;;;0.72;0.72;;;;;;;30.65;32.48;99209.81;1836335;76;28190;-45
2022/07/30 12:40:51;;;;;;;0.80;0.80;;;;;;;30.66;31.78;99184.58;1856414;76;28221;-50
2022/07/30 12:43:51;;;;;;;0.80;0.80;;;;;;;30.63;31.76;99187.10;1866063;76;28070;-45
2022/07/30 12:46:41;;;;;;;1.05;0.95;;;;;;;30.63;30.84;99174.62;1865790;75;28169;-45
2022/07/30 12:49:31;;;;;;;2.00;0.90;;;;;;;30.63;31.17;99189.88;1862939;76;28216;-48
2022/07/30 12:52:27;;;;;;;0.90;0.90;;;;;;;30.61;31.77;99191.57;1860628;75;28256;-43
2022/07/30 12:55:17;;;;;;;1.10;0.82;;;;;;;30.61;31.44;99164.40;1857593;76;28061;-48
2022/07/30 12:58:07;;;;;;;1.40;1.00;;;;;;;30.62;31.77;99148.04;1844808;77;28098;-45
2022/07/30 13:00:59;;;;;;;0.80;0.80;;;;;;;30.62;32.27;99146.66;1863376;75;28085;-51
2022/07/30 13:03:48;;;;;;;1.25;0.80;;;;;;;30.63;32.51;99167.14;1855570;76;28056;-48
2022/07/30 13:06:39;;;;;;;1.00;0.80;;;;;;;30.62;32.55;99162.70;1867802;76;28136;-49
2022/07/30 13:09:27;;;;;;;1.02;1.00;;;;;;;30.61;32.71;99168.55;1867008;76;28174;-47
2022/07/30 13:12:16;;;;;;;1.00;0.80;;;;;;;30.60;32.80;99153.03;1870358;75;28039;-44
2022/07/30 13:15:06;;;;;;;1.10;1.10;;;;;;;30.60;32.88;99151.64;1853204;76;28118;-47
2022/07/30 13:17:54;;;;;;;0.82;0.82;;;;;;;30.58;33.00;99138.09;1858200;76;32047;-50
2022/07/30 13:20:43;;;;;;;0.90;0.90;;;;;;;30.62;32.94;99154.97;1866437;76;28218;-49
2022/07/30 13:23:31;;;;;;;0.78;0.70;;;;;;;30.62;32.89;99151.61;1868043;76;28065;-47
2022/07/30 13:26:20;;;;;;;2.02;0.80;;;;;;;30.60;32.88;99141.94;1837090;77;28321;-45
2022/07/30 13:29:17;;;;;;;0.73;0.73;;;;;;;30.60;33.02;99147.48;1877182;75;28115;-50
2022/07/30 13:32:05;;;;;;;0.90;0.80;;;;;;;30.60;33.07;99152.47;1835687;77;28195;-49
2022/07/30 13:34:54;;;;;;;1.02;0.70;;;;;;;30.58;33.11;99142.24;1812533;78;28111;-48